createdAt,value
2019-05-10T00:01:14.723Z,67.80
2019-05-10T00:04:03.687Z,67.80
2019-05-10T00:06:52.526Z,67.80
2019-05-10T00:09:22.706Z,67.70
2019-05-10T00:12:07.006Z,67.50
2019-05-10T00:14:55.133Z,67.40
2019-05-10T00:17:26.446Z,67.10
2019-05-10T00:19:57.639Z,67.00
2019-05-10T00:22:28.619Z,66.90
2019-05-10T00:25:04.578Z,67.00
2019-05-10T00:27:32.966Z,67.10
2019-05-10T00:30:04.382Z,67.10
2019-05-10T00:32:35.790Z,67.20
2019-05-10T00:35:07.487Z,67.30
2019-05-10T00:37:38.494Z,67.40
2019-05-10T00:40:09.976Z,67.40
2019-05-10T00:42:41.478Z,67.30
2019-05-10T00:45:12.906Z,67.30
2019-05-10T00:47:44.206Z,67.20
2019-05-10T00:50:15.554Z,67.10
2019-05-10T00:52:46.534Z,67.00
2019-05-10T00:55:19.245Z,66.90
2019-05-10T00:57:50.862Z,66.90
2019-05-10T01:00:22.088Z,66.80
2019-05-10T01:02:52.946Z,66.70
2019-05-10T01:05:24.278Z,66.60
2019-05-10T01:07:55.378Z,66.50
2019-05-10T01:10:26.567Z,66.40
2019-05-10T01:12:58.066Z,66.40
2019-05-10T01:15:29.166Z,66.30
2019-05-10T01:18:01.210Z,66.30
2019-05-10T01:20:33.358Z,66.00
2019-05-10T01:23:04.770Z,66.00
2019-05-10T01:25:36.049Z,65.70
2019-05-10T01:28:07.669Z,66.00
2019-05-10T01:30:39.058Z,65.50
2019-05-10T01:33:10.566Z,65.40
2019-05-10T01:35:41.914Z,65.60
2019-05-10T01:38:13.093Z,65.70
2019-05-10T01:40:45.606Z,65.70
2019-05-10T01:43:16.559Z,65.70
2019-05-10T01:45:47.592Z,65.70
2019-05-10T01:48:18.694Z,65.60
2019-05-10T01:50:49.875Z,65.50
2019-05-10T01:53:20.978Z,65.50
2019-05-10T01:55:53.068Z,65.50
2019-05-10T01:58:24.114Z,65.60
2019-05-10T02:00:55.259Z,65.50
2019-05-10T02:03:26.015Z,65.50
2019-05-10T02:05:57.107Z,65.50
2019-05-10T02:08:28.007Z,65.60
2019-05-10T02:10:59.075Z,65.80
2019-05-10T02:13:30.339Z,66.00
2019-05-10T02:16:01.862Z,66.20
2019-05-10T02:18:33.207Z,66.30
2019-05-10T02:21:05.423Z,66.30
2019-05-10T02:23:37.522Z,66.40
2019-05-10T02:26:10.066Z,66.50
2019-05-10T02:28:41.598Z,66.50
2019-05-10T02:31:13.856Z,66.60
2019-05-10T02:33:45.076Z,66.70
2019-05-10T02:36:16.540Z,66.90
2019-05-10T02:38:48.627Z,67.00
2019-05-10T02:41:19.792Z,67.10
2019-05-10T02:43:50.987Z,67.20
2019-05-10T02:46:22.342Z,67.20
2019-05-10T02:48:53.849Z,67.20
2019-05-10T02:51:25.278Z,67.40
2019-05-10T02:53:56.595Z,67.50
2019-05-10T02:56:31.286Z,67.60
2019-05-10T02:59:02.067Z,67.70
2019-05-10T03:01:33.225Z,68.70
2019-05-10T03:04:04.202Z,68.00
2019-05-10T03:06:36.453Z,68.30
2019-05-10T03:09:09.164Z,68.20
2019-05-10T03:11:50.094Z,68.70
2019-05-10T03:14:21.408Z,68.20
2019-05-10T03:16:53.103Z,68.10
2019-05-10T03:19:24.267Z,68.00
2019-05-10T03:22:06.300Z,68.10
2019-05-10T03:24:37.407Z,68.00
2019-05-10T03:27:08.611Z,67.90
2019-05-10T03:29:39.719Z,67.90
2019-05-10T03:32:10.813Z,68.00
2019-05-10T03:34:41.934Z,68.00
2019-05-10T03:37:12.997Z,68.00
2019-05-10T03:39:43.997Z,68.00
2019-05-10T03:42:15.248Z,68.10
2019-05-10T03:44:46.155Z,68.20
2019-05-10T03:47:17.092Z,68.40
2019-05-10T03:49:48.087Z,68.60
2019-05-10T03:52:19.212Z,68.80
2019-05-10T03:54:50.543Z,68.80
2019-05-10T03:57:21.480Z,68.80
2019-05-10T03:59:52.921Z,68.90
2019-05-10T04:02:24.135Z,68.90
2019-05-10T04:04:55.079Z,69.00
2019-05-10T04:07:26.179Z,68.90
2019-05-10T04:09:57.330Z,68.90
2019-05-10T04:12:28.669Z,68.60
2019-05-10T04:15:00.024Z,68.30
2019-05-10T04:17:31.067Z,67.90
2019-05-10T04:20:02.395Z,67.50
2019-05-10T04:22:33.803Z,67.20
2019-05-10T04:25:05.324Z,67.10
2019-05-10T04:27:36.699Z,67.30
2019-05-10T04:30:08.229Z,67.30
2019-05-10T04:32:39.234Z,67.30
2019-05-10T04:35:10.965Z,67.40
2019-05-10T04:37:42.512Z,67.50
2019-05-10T04:40:13.871Z,67.60
2019-05-10T04:42:45.135Z,67.90
2019-05-10T04:45:16.867Z,68.00
2019-05-10T04:47:48.188Z,68.20
2019-05-10T04:50:19.259Z,68.50
2019-05-10T04:52:50.576Z,68.40
2019-05-10T04:55:21.692Z,68.20
2019-05-10T04:57:53.127Z,68.10
2019-05-10T05:00:24.167Z,67.90
2019-05-10T05:02:55.343Z,67.90
2019-05-10T05:05:26.614Z,67.70
2019-05-10T05:07:57.575Z,66.40
2019-05-10T05:10:28.682Z,66.50
2019-05-10T05:12:59.623Z,66.50
2019-05-10T05:15:30.697Z,66.30
2019-05-10T05:18:01.626Z,66.50
2019-05-10T05:20:32.658Z,66.50
2019-05-10T05:23:03.630Z,66.50
2019-05-10T05:25:40.407Z,66.50
2019-05-10T05:28:08.703Z,66.40
2019-05-10T05:30:39.792Z,66.50
2019-05-10T05:33:10.679Z,66.40
2019-05-10T05:35:42.347Z,66.50
2019-05-10T05:38:13.203Z,66.40
2019-05-10T05:40:44.506Z,66.50
2019-05-10T05:43:15.635Z,66.70
2019-05-10T05:45:46.814Z,66.90
2019-05-10T05:48:21.323Z,67.30
2019-05-10T05:50:51.244Z,67.60
2019-05-10T05:53:22.745Z,67.40
2019-05-10T05:55:53.834Z,66.50
2019-05-10T05:58:27.153Z,65.70
2019-05-10T06:00:57.852Z,65.10
2019-05-10T06:03:29.677Z,64.50
2019-05-10T06:06:01.460Z,64.30
2019-05-10T06:08:32.495Z,63.90
2019-05-10T06:11:04.138Z,63.80
2019-05-10T06:13:35.454Z,63.50
2019-05-10T06:16:13.229Z,63.30
2019-05-10T06:18:41.657Z,63.20
2019-05-10T06:21:11.987Z,63.20
2019-05-10T06:23:43.011Z,63.30
2019-05-10T06:26:20.974Z,63.30
2019-05-10T06:29:04.500Z,62.50
2019-05-10T06:31:18.455Z,62.10
2019-05-10T06:33:49.223Z,62.00
2019-05-10T06:36:20.284Z,61.60
2019-05-10T06:38:51.643Z,61.50
2019-05-10T06:41:22.758Z,61.40
2019-05-10T06:43:54.115Z,61.00
2019-05-10T06:46:29.322Z,60.40
2019-05-10T06:49:07.141Z,60.00
2019-05-10T06:51:31.255Z,60.60
2019-05-10T06:54:02.565Z,60.10
2019-05-10T06:56:33.699Z,60.10
2019-05-10T06:59:13.549Z,60.10
2019-05-10T07:01:38.493Z,59.70
2019-05-10T07:04:10.527Z,59.90
2019-05-10T07:06:41.660Z,59.70
2019-05-10T07:09:13.273Z,59.20
2019-05-10T07:11:44.255Z,58.20
2019-05-10T07:14:15.431Z,57.40
2019-05-10T07:16:46.936Z,56.70
2019-05-10T07:19:18.151Z,56.20
2019-05-10T07:21:51.199Z,55.60
2019-05-10T07:24:24.921Z,55.20
2019-05-10T07:26:56.520Z,55.40
2019-05-10T07:29:30.343Z,55.90
2019-05-10T07:32:01.494Z,55.90
2019-05-10T07:34:33.323Z,55.90
2019-05-10T07:37:05.011Z,54.30
2019-05-10T07:39:36.215Z,53.20
2019-05-10T07:42:09.078Z,51.90
2019-05-10T07:44:41.395Z,50.60
2019-05-10T07:47:13.735Z,49.90
2019-05-10T07:49:44.646Z,49.60
2019-05-10T07:52:15.975Z,49.20
2019-05-10T07:54:47.759Z,49.40
2019-05-10T07:57:24.741Z,48.60
2019-05-10T07:59:57.625Z,48.10
2019-05-10T08:02:25.902Z,46.70
2019-05-10T08:04:58.471Z,45.20
2019-05-10T08:07:29.535Z,43.80
2019-05-10T08:10:00.914Z,43.10
2019-05-10T08:12:35.317Z,42.40
2019-05-10T08:15:08.574Z,41.80
2019-05-10T08:17:45.350Z,41.20
2019-05-10T08:20:20.348Z,39.90
2019-05-10T08:22:46.300Z,39.60
2019-05-10T08:25:17.183Z,38.90
2019-05-10T08:27:50.445Z,38.90
2019-05-10T08:30:42.615Z,38.40
2019-05-10T08:33:14.491Z,38.10
2019-05-10T08:35:46.496Z,38.20
2019-05-10T08:38:17.341Z,37.00
2019-05-10T08:40:48.839Z,37.10
2019-05-10T08:43:21.824Z,37.70
2019-05-10T08:45:52.984Z,37.80
2019-05-10T08:48:23.958Z,38.00
2019-05-10T08:50:57.634Z,38.30
2019-05-10T08:53:27.595Z,39.00
2019-05-10T08:55:59.218Z,39.90
2019-05-10T09:01:27.527Z,40.10
2019-05-10T09:03:59.017Z,39.50
2019-05-10T09:06:24.933Z,38.90
2019-05-10T09:09:01.562Z,38.20
2019-05-10T09:11:28.623Z,36.60
2019-05-10T09:14:03.030Z,36.10
2019-05-10T09:16:39.499Z,35.80
2019-05-10T09:19:07.071Z,35.50
2019-05-10T09:21:40.898Z,35.70
2019-05-10T09:24:12.853Z,36.40
2019-05-10T09:26:46.978Z,36.50
2019-05-10T09:29:16.874Z,36.90
2019-05-10T09:31:50.652Z,37.70
2019-05-10T09:34:23.826Z,38.50
2019-05-10T09:36:53.964Z,38.70
2019-05-10T09:39:25.375Z,39.30
2019-05-10T09:41:56.023Z,39.10
2019-05-10T09:44:26.822Z,39.90
2019-05-10T09:46:58.160Z,38.40
2019-05-10T09:49:29.323Z,36.80
2019-05-10T09:52:04.606Z,35.60
2019-05-10T09:54:33.706Z,35.40
2019-05-10T09:57:05.247Z,34.50
2019-05-10T09:59:36.894Z,34.40
2019-05-10T10:02:14.354Z,33.90
2019-05-10T10:04:40.877Z,34.10
2019-05-10T10:07:13.387Z,34.30
2019-05-10T10:09:45.656Z,34.10
2019-05-10T10:12:17.628Z,34.10
2019-05-10T10:14:48.639Z,32.70
2019-05-10T10:17:20.558Z,32.50
2019-05-10T10:19:51.555Z,31.60
2019-05-10T10:22:22.535Z,31.00
2019-05-10T10:24:55.143Z,30.30
2019-05-10T10:27:34.303Z,30.00
2019-05-10T10:29:59.059Z,30.00
2019-05-10T10:32:33.826Z,30.50
2019-05-10T10:35:02.747Z,30.50
2019-05-10T10:37:33.931Z,31.00
2019-05-10T10:40:07.861Z,32.70
2019-05-10T10:42:38.019Z,32.80
2019-05-10T10:45:11.218Z,32.60
2019-05-10T10:47:42.908Z,33.10
2019-05-10T10:50:14.367Z,33.00
2019-05-10T10:52:47.575Z,33.00
2019-05-10T10:55:54.384Z,33.70
2019-05-10T10:58:22.174Z,34.50
2019-05-10T11:00:53.993Z,34.20
2019-05-10T11:03:30.539Z,35.30
2019-05-10T11:05:58.994Z,36.50
2019-05-10T11:08:32.971Z,37.10
2019-05-10T11:11:04.263Z,38.10
2019-05-10T11:13:43.880Z,39.40
2019-05-10T11:16:15.109Z,40.40
2019-05-10T11:18:42.032Z,41.00
2019-05-10T11:21:14.298Z,41.70
2019-05-10T11:23:45.515Z,42.10
2019-05-10T11:26:17.671Z,43.00
2019-05-10T11:28:48.729Z,44.20
2019-05-10T11:31:21.391Z,44.30
2019-05-10T11:33:58.555Z,44.60
2019-05-10T11:36:26.255Z,44.40
2019-05-10T11:38:58.759Z,43.10
2019-05-10T11:41:31.444Z,41.80
2019-05-10T11:44:05.517Z,41.60
2019-05-10T11:46:35.720Z,40.60
2019-05-10T11:49:07.787Z,40.40
2019-05-10T11:51:41.314Z,41.00
2019-05-10T11:54:12.227Z,41.40
2019-05-10T11:56:44.036Z,41.20
2019-05-10T11:59:16.486Z,40.90
2019-05-10T12:01:54.835Z,40.50
2019-05-10T12:04:28.843Z,40.50
2019-05-10T12:06:55.025Z,40.70
2019-05-10T12:09:27.687Z,40.80
2019-05-10T12:12:03.019Z,40.00
2019-05-10T12:14:31.495Z,39.50
2019-05-10T12:17:06.495Z,39.60
2019-05-10T12:19:44.550Z,39.90
2019-05-10T12:22:15.035Z,40.00
2019-05-10T12:24:53.958Z,40.30
2019-05-10T12:27:25.367Z,40.90
2019-05-10T12:29:55.494Z,41.40
2019-05-10T12:32:21.334Z,41.50
2019-05-10T12:34:56.538Z,40.80
2019-05-10T12:37:27.515Z,40.00
2019-05-10T12:40:06.234Z,38.80
2019-05-10T12:42:31.742Z,38.70
2019-05-10T12:45:02.760Z,37.60
2019-05-10T12:47:33.890Z,36.90
2019-05-10T12:50:05.503Z,36.70
2019-05-10T12:52:36.667Z,36.30
2019-05-10T12:55:07.474Z,36.20
2019-05-10T12:57:38.259Z,36.40
2019-05-10T13:00:13.046Z,37.10
2019-05-10T13:02:44.797Z,36.20
2019-05-10T13:05:17.224Z,34.70
2019-05-10T13:07:48.206Z,33.70
2019-05-10T13:10:20.673Z,31.90
2019-05-10T13:12:51.800Z,30.80
2019-05-10T13:15:24.923Z,30.00
2019-05-10T13:17:55.543Z,30.30
2019-05-10T13:20:30.742Z,31.20
2019-05-10T13:22:59.201Z,31.90
2019-05-10T13:25:30.287Z,32.50
2019-05-10T13:28:01.487Z,33.30
2019-05-10T13:30:32.752Z,34.50
2019-05-10T13:33:04.108Z,35.40
2019-05-10T13:35:35.459Z,36.30
2019-05-10T13:38:06.643Z,37.40
2019-05-10T13:40:45.925Z,38.30
2019-05-10T13:43:11.175Z,39.20
2019-05-10T13:45:41.989Z,40.70
2019-05-10T13:48:12.811Z,42.70
2019-05-10T13:50:44.439Z,42.50
2019-05-10T13:53:20.917Z,42.00
2019-05-10T13:55:49.018Z,42.50
2019-05-10T13:58:20.834Z,41.10
2019-05-10T14:00:52.359Z,39.40
2019-05-10T14:03:24.458Z,39.00
2019-05-10T14:05:56.363Z,38.70
2019-05-10T14:08:28.219Z,38.40
2019-05-10T14:11:01.515Z,38.10
2019-05-10T14:13:35.600Z,38.00
2019-05-10T14:16:05.850Z,38.70
2019-05-10T14:18:37.323Z,39.10
2019-05-10T14:21:08.499Z,39.40
2019-05-10T14:23:39.945Z,38.80
2019-05-10T14:26:16.462Z,39.50
2019-05-10T14:28:47.277Z,39.60
2019-05-10T14:31:17.592Z,39.70
2019-05-10T14:34:14.233Z,40.10
2019-05-10T14:36:21.163Z,40.80
2019-05-10T14:38:54.552Z,40.50
2019-05-10T14:41:26.332Z,40.40
2019-05-10T14:43:57.979Z,40.30
2019-05-10T14:46:29.096Z,40.90
2019-05-10T14:49:09.222Z,40.40
2019-05-10T14:51:49.680Z,40.60
2019-05-10T14:54:08.737Z,41.00
2019-05-10T14:56:38.835Z,41.10
2019-05-10T14:59:10.587Z,40.70
2019-05-10T15:01:43.048Z,39.80
2019-05-10T15:04:20.130Z,40.10
2019-05-10T15:06:47.188Z,40.30
2019-05-10T15:09:21.986Z,40.40
2019-05-10T15:11:52.133Z,40.70
2019-05-10T15:14:23.619Z,40.60
2019-05-10T15:16:56.049Z,40.50
2019-05-10T15:19:30.968Z,41.00
2019-05-10T15:22:00.407Z,41.30
2019-05-10T15:24:31.652Z,41.20
2019-05-10T15:27:02.635Z,41.40
2019-05-10T15:29:34.610Z,41.70
2019-05-10T15:32:05.839Z,41.80
2019-05-10T15:34:37.823Z,41.80
2019-05-10T15:37:09.438Z,41.90
2019-05-10T15:39:41.826Z,42.20
2019-05-10T15:42:12.874Z,41.90
2019-05-10T15:44:44.935Z,41.70
2019-05-10T15:47:20.632Z,41.70
2019-05-10T15:49:49.115Z,41.90
2019-05-10T15:52:23.457Z,41.80
2019-05-10T15:54:54.385Z,41.80
2019-05-10T15:57:25.625Z,41.70
2019-05-10T15:59:59.089Z,41.80
2019-05-10T16:02:29.827Z,41.60
2019-05-10T16:05:01.596Z,41.70
2019-05-10T16:07:33.898Z,42.10
2019-05-10T16:10:05.363Z,41.90
2019-05-10T16:12:37.673Z,41.90
2019-05-10T16:15:13.654Z,41.50
2019-05-10T16:17:42.683Z,41.00
2019-05-10T16:20:13.662Z,40.70
2019-05-10T16:22:44.491Z,40.90
2019-05-10T16:25:16.041Z,41.20
2019-05-10T16:27:47.292Z,41.50
2019-05-10T16:30:20.331Z,41.80
2019-05-10T16:32:51.579Z,41.80
2019-05-10T16:35:22.510Z,42.00
2019-05-10T16:37:53.861Z,42.20
2019-05-10T16:40:25.119Z,42.40
2019-05-10T16:42:56.151Z,42.20
2019-05-10T16:45:27.823Z,42.40
2019-05-10T16:47:59.059Z,42.70
2019-05-10T16:50:31.631Z,43.20
2019-05-10T16:53:05.956Z,43.30
2019-05-10T16:55:41.063Z,43.80
2019-05-10T16:58:15.029Z,44.00
2019-05-10T17:00:46.169Z,44.40
2019-05-10T17:03:20.490Z,44.50
2019-05-10T17:05:53.594Z,44.90
2019-05-10T17:08:23.101Z,45.10
2019-05-10T17:10:53.924Z,45.60
2019-05-10T17:13:25.211Z,45.60
2019-05-10T17:15:56.327Z,45.80
2019-05-10T17:18:28.430Z,45.70
2019-05-10T17:20:59.727Z,45.70
2019-05-10T17:23:31.039Z,45.60
2019-05-10T17:26:02.523Z,45.80
2019-05-10T17:28:35.438Z,45.80
2019-05-10T17:31:07.731Z,46.00
2019-05-10T17:33:42.814Z,46.20
2019-05-10T17:36:14.562Z,46.40
2019-05-10T17:38:47.223Z,46.60
2019-05-10T17:41:19.344Z,46.60
2019-05-10T17:43:50.585Z,46.70
2019-05-10T17:46:21.922Z,46.80
2019-05-10T17:48:53.130Z,47.00
2019-05-10T17:51:24.279Z,47.20
2019-05-10T17:54:01.672Z,47.30
2019-05-10T17:56:32.927Z,47.60
2019-05-10T17:59:05.987Z,47.80
2019-05-10T18:01:34.027Z,47.80
2019-05-10T18:04:06.223Z,48.00
2019-05-10T18:06:37.539Z,48.30
2019-05-10T18:09:09.681Z,48.70
2019-05-10T18:11:43.118Z,48.90
2019-05-10T18:14:17.985Z,48.90
2019-05-10T18:16:47.899Z,48.90
2019-05-10T18:19:24.792Z,49.10
2019-05-10T18:21:54.894Z,49.20
2019-05-10T18:24:30.081Z,49.20
2019-05-10T18:26:58.979Z,49.30
2019-05-10T18:29:30.407Z,49.50
2019-05-10T18:32:02.347Z,49.70
2019-05-10T18:34:35.482Z,49.80
2019-05-10T18:37:06.395Z,50.00
2019-05-10T18:39:37.374Z,50.10
2019-05-10T18:42:08.303Z,50.30
2019-05-10T18:44:39.528Z,50.20
2019-05-10T18:47:10.823Z,50.20
2019-05-10T18:49:42.222Z,50.40
2019-05-10T18:52:13.572Z,50.70
2019-05-10T18:54:44.966Z,50.90
2019-05-10T18:57:19.268Z,51.10
2019-05-10T18:59:48.831Z,51.20
2019-05-10T19:02:20.169Z,51.50
2019-05-10T19:04:54.101Z,51.70
2019-05-10T19:07:25.255Z,51.70
2019-05-10T19:09:57.112Z,51.90
2019-05-10T19:12:29.705Z,51.80
2019-05-10T19:15:02.441Z,51.90
2019-05-10T19:17:34.344Z,52.00
2019-05-10T19:20:09.338Z,52.10
2019-05-10T19:22:41.338Z,52.00
2019-05-10T19:25:14.463Z,52.10
2019-05-10T19:27:50.526Z,52.10
2019-05-10T19:30:20.608Z,52.20
2019-05-10T19:32:56.305Z,52.20
2019-05-10T19:35:24.647Z,52.20
2019-05-10T19:37:56.126Z,52.50
2019-05-10T19:40:27.265Z,53.20
2019-05-10T19:42:58.911Z,52.60
2019-05-10T19:45:31.169Z,52.70
2019-05-10T19:48:05.765Z,52.80
2019-05-10T19:50:35.623Z,52.80
2019-05-10T19:53:07.344Z,52.90
2019-05-10T19:55:38.311Z,52.90
2019-05-10T19:58:09.800Z,53.00
2019-05-10T20:00:42.192Z,52.90
2019-05-10T20:03:13.899Z,52.80
2019-05-10T20:05:45.327Z,52.80
2019-05-10T20:08:16.659Z,52.80
2019-05-10T20:10:47.643Z,52.60
2019-05-10T20:13:18.956Z,52.40
2019-05-10T20:15:50.911Z,52.40
2019-05-10T20:18:22.351Z,52.30
2019-05-10T20:20:53.985Z,52.30
2019-05-10T20:23:25.271Z,52.40
2019-05-10T20:25:59.202Z,52.40
2019-05-10T20:28:28.987Z,52.60
2019-05-10T20:31:00.247Z,52.60
2019-05-10T20:33:31.235Z,52.60
2019-05-10T20:36:02.395Z,52.60
2019-05-10T20:38:33.719Z,52.80
2019-05-10T20:41:04.855Z,52.80
2019-05-10T20:43:36.115Z,53.00
2019-05-10T20:46:07.341Z,53.00
2019-05-10T20:48:38.535Z,53.20
2019-05-10T20:51:09.743Z,53.40
2019-05-10T20:53:41.223Z,53.30
2019-05-10T20:56:12.787Z,53.50
2019-05-10T20:58:44.059Z,53.70
2019-05-10T21:01:15.247Z,54.00
2019-05-10T21:03:46.595Z,54.20
2019-05-10T21:06:18.027Z,54.40
2019-05-10T21:08:49.257Z,54.60
2019-05-10T21:11:20.324Z,54.70
2019-05-10T21:13:52.063Z,54.80
2019-05-10T21:16:23.079Z,55.40
2019-05-10T21:18:54.391Z,54.90
2019-05-10T21:21:26.359Z,55.00
2019-05-10T21:23:57.643Z,55.00
2019-05-10T21:26:28.862Z,54.90
2019-05-10T21:28:59.763Z,55.00
2019-05-10T21:31:30.943Z,54.90
2019-05-10T21:34:09.589Z,54.90
2019-05-10T21:36:35.455Z,54.80
2019-05-10T21:39:08.231Z,54.80
2019-05-10T21:41:39.420Z,54.90
2019-05-10T21:44:10.550Z,54.80
2019-05-10T21:46:42.466Z,54.70
2019-05-10T21:49:13.546Z,54.70
2019-05-10T21:51:44.967Z,54.80
2019-05-10T21:54:16.283Z,54.80
2019-05-10T21:56:47.989Z,55.00
2019-05-10T21:59:18.739Z,55.20
2019-05-10T22:01:49.823Z,55.10
2019-05-10T22:04:20.691Z,55.30
2019-05-10T22:06:52.160Z,55.50
2019-05-10T22:09:24.080Z,55.70
2019-05-10T22:11:55.222Z,55.70
2019-05-10T22:14:26.343Z,55.90
2019-05-10T22:16:57.219Z,55.90
2019-05-10T22:19:28.307Z,56.00
2019-05-10T22:21:59.399Z,55.90
2019-05-10T22:24:30.456Z,56.00
2019-05-10T22:27:01.269Z,56.00
2019-05-10T22:29:33.059Z,56.90
2019-05-10T22:32:04.380Z,57.00
2019-05-10T22:34:35.347Z,57.10
2019-05-10T22:37:06.539Z,57.20
2019-05-10T22:39:37.709Z,57.80
2019-05-10T22:42:08.775Z,57.20
2019-05-10T22:44:40.323Z,57.40
2019-05-10T22:47:11.538Z,57.30
2019-05-10T22:49:42.742Z,57.50
2019-05-10T22:52:13.702Z,57.50
2019-05-10T22:54:44.451Z,57.60
2019-05-10T22:57:15.687Z,57.80
2019-05-10T22:59:46.795Z,58.00
2019-05-10T23:02:17.975Z,58.10
2019-05-10T23:04:49.159Z,58.10
2019-05-10T23:07:20.239Z,58.10
2019-05-10T23:09:51.462Z,58.10
2019-05-10T23:12:22.828Z,58.10
2019-05-10T23:14:54.034Z,58.40
2019-05-10T23:17:25.154Z,58.10
2019-05-10T23:19:56.267Z,58.10
2019-05-10T23:22:27.054Z,58.00
2019-05-10T23:24:58.119Z,58.10
2019-05-10T23:27:29.242Z,58.10
2019-05-10T23:30:00.315Z,58.20
2019-05-10T23:32:31.586Z,58.20
2019-05-10T23:35:02.483Z,58.50
2019-05-10T23:37:33.523Z,58.70
2019-05-10T23:40:04.763Z,59.00
2019-05-10T23:42:35.768Z,59.10
2019-05-10T23:45:07.525Z,59.20
2019-05-10T23:47:38.502Z,59.30
2019-05-10T23:50:10.293Z,59.40
2019-05-10T23:52:41.310Z,58.60
2019-05-10T23:55:12.540Z,58.40
2019-05-10T23:57:43.690Z,58.40
